Quincy, Massachusetts
Current Conditions -  °F | °C
As of 11:54 AM on Sunday 23 Nov 2014 (Local Time) from KBOS Reporting Station
Few Clouds Few Clouds  
Wind Chill: 56°   Ceiling: Unl
Heat Index: 56°   Visibility: 10mi
Dew Point: 34°   Wind: 7mph
Humidity: 44%   Direction: 260°W
Pressure: 30.11"   Gusts: NA
Location:  42.25°N, 71°W
Report Text: KBOS 231654Z 26006KT 10SM FEW100 13/01 A3011 RMK AO2 SLP195 T01330011
Loading
Personal Weather Stations






























Interactive Weather Map New forecast layout! Learn more

10-Day Weather Forecast

Advertisements
Track Severe Weather on mobile